Kezdőlap
METAR-TAF:

METAR-TAF

Repülőterek :

Red Oak Municipal Airport

Red Oak, Iowa, Amerikai Egyesült Államok

földrajzi szélesség: 41-01N, földrajzi hosszúság: 095-16W, magasság: 318 m

Jelenlegi meteorológiai megfigyelések

A jelentés 42 perccel ezelõtt készült, 17:55 UTC
Keleti szél 19 kt széllökések: 29 kt, északkeleti és kelet-délkeleti között változik
Hőmérséklet 29°C
Páratartalom 62%
Légköri nyomás 1008 hPa
Látótávolság: 16.1 km
Derült ég

METAR: KRDK 181755Z AUTO 08019G29KT 050V110 10SM CLR 29/21 A2976 RMK AO2

Idő: 13:37 (18:37 UTC)


TAF: hiányzik

Meteorológiai megfigyelések és előrejelzések több, mint 4000 repülőtéren (METAR és TAF jelentéseket).

A térképen piros és sárga pontok jelzik az elérhető meteorológiai állomásokat.

Mozgassa az egeret a pont fölött, hogy megjelenjen az állomás neve.

Azután kattintson az időjárási megfigyelések és előrejelzések megtekintéséhez.

A térkép megváltoztatása: kattintson a fekete keresztel jelölt zöld gombra ráközelítéshez, a vonallal jelölt zöld gombra távolításhoz, vagy a zöld nyilakra a szomszédos térképek eléréséhez.


METAR-TAF: